createdAt,value
2022-07-30T00:00:33.444Z,17.19
2022-07-30T00:02:59.882Z,17.20
2022-07-30T00:05:26.401Z,17.13
2022-07-30T00:07:52.892Z,17.06
2022-07-30T00:10:20.587Z,17.02
2022-07-30T00:12:47.100Z,16.93
2022-07-30T00:15:13.514Z,16.89
2022-07-30T00:17:39.986Z,16.88
2022-07-30T00:20:07.092Z,16.83
2022-07-30T00:22:33.441Z,16.79
2022-07-30T00:24:59.870Z,16.71
2022-07-30T00:27:26.698Z,16.71
2022-07-30T00:29:53.081Z,16.69
2022-07-30T00:32:19.481Z,16.65
2022-07-30T00:34:45.922Z,16.54
2022-07-30T00:37:12.681Z,16.57
2022-07-30T00:39:39.099Z,16.57
2022-07-30T00:42:05.548Z,16.53
2022-07-30T00:44:31.944Z,16.49
2022-07-30T00:46:58.950Z,16.45
2022-07-30T00:49:26.881Z,16.47
2022-07-30T00:51:53.370Z,16.44
2022-07-30T00:54:21.343Z,16.38
2022-07-30T00:56:48.844Z,16.32
2022-07-30T00:59:16.057Z,16.30
2022-07-30T01:01:42.453Z,16.26
2022-07-30T01:04:11.529Z,16.25
2022-07-30T01:06:39.752Z,16.23
2022-07-30T01:09:07.233Z,16.16
2022-07-30T01:11:39.249Z,16.08
2022-07-30T01:14:07.885Z,16.03
2022-07-30T01:16:35.844Z,16.02
2022-07-30T01:19:26.079Z,16.01
2022-07-30T01:22:12.460Z,16.02
2022-07-30T01:24:44.546Z,15.96
2022-07-30T01:27:15.704Z,15.93
2022-07-30T01:29:46.270Z,15.92
2022-07-30T01:32:13.833Z,15.87
2022-07-30T01:34:42.450Z,15.90
2022-07-30T01:37:10.949Z,15.86
2022-07-30T01:39:38.288Z,15.85
2022-07-30T01:42:08.420Z,15.83
2022-07-30T01:44:35.918Z,15.82
2022-07-30T01:47:03.725Z,15.77
2022-07-30T01:49:32.404Z,15.68
2022-07-30T01:52:00.556Z,15.59
2022-07-30T01:54:28.955Z,15.62
2022-07-30T01:56:56.805Z,15.58
2022-07-30T01:59:24.961Z,15.53
2022-07-30T02:01:51.401Z,15.55
2022-07-30T02:04:17.949Z,15.52
2022-07-30T02:06:59.805Z,15.51
2022-07-30T02:09:31.106Z,15.43
2022-07-30T02:12:17.596Z,15.31
2022-07-30T02:15:00.479Z,15.34
2022-07-30T02:17:39.563Z,15.28
2022-07-30T02:20:10.083Z,15.25
2022-07-30T02:22:39.494Z,15.20
2022-07-30T02:25:08.950Z,15.05
2022-07-30T02:27:38.827Z,15.13
2022-07-30T02:30:06.937Z,15.11
2022-07-30T02:32:37.368Z,15.07
2022-07-30T02:35:15.934Z,15.03
2022-07-30T02:37:45.209Z,15.04
2022-07-30T02:40:16.364Z,14.92
2022-07-30T02:42:46.532Z,15.02
2022-07-30T02:45:15.855Z,15.01
2022-07-30T02:47:44.346Z,14.94
2022-07-30T02:50:12.661Z,14.95
2022-07-30T02:52:40.541Z,14.94
2022-07-30T02:55:09.692Z,14.90
2022-07-30T02:57:36.989Z,14.81
2022-07-30T03:00:10.686Z,14.91
2022-07-30T03:02:38.841Z,14.80
2022-07-30T03:05:07.522Z,14.82
2022-07-30T03:07:35.305Z,14.81
2022-07-30T03:10:02.697Z,14.78
2022-07-30T03:12:31.261Z,14.75
2022-07-30T03:14:58.068Z,14.72
2022-07-30T03:17:28.257Z,14.67
2022-07-30T03:19:56.854Z,14.71
2022-07-30T03:22:31.194Z,14.72
2022-07-30T03:24:59.264Z,14.67
2022-07-30T03:27:26.241Z,14.72
2022-07-30T03:29:54.222Z,14.73
2022-07-30T03:32:26.099Z,14.63
2022-07-30T03:34:54.452Z,14.52
2022-07-30T03:37:22.721Z,14.67
2022-07-30T03:39:49.184Z,14.59
2022-07-30T03:42:16.500Z,14.64
2022-07-30T03:44:45.678Z,14.61
2022-07-30T03:47:13.077Z,14.60
2022-07-30T03:49:39.759Z,14.58
2022-07-30T03:52:07.199Z,14.52
2022-07-30T03:54:34.070Z,14.51
2022-07-30T03:57:04.990Z,14.48
2022-07-30T03:59:31.497Z,14.50
2022-07-30T04:02:05.835Z,14.48
2022-07-30T04:04:33.915Z,14.46
2022-07-30T04:07:00.725Z,14.45
2022-07-30T04:09:27.337Z,14.42
2022-07-30T04:11:53.744Z,14.42
2022-07-30T04:14:20.268Z,14.42
2022-07-30T04:16:52.006Z,14.41
2022-07-30T04:19:57.675Z,14.40
2022-07-30T04:22:29.764Z,14.41
2022-07-30T04:24:57.233Z,14.43
2022-07-30T04:27:25.318Z,14.31
2022-07-30T04:29:53.347Z,14.50
2022-07-30T04:32:20.178Z,14.55
2022-07-30T04:34:51.400Z,14.56
2022-07-30T04:37:19.777Z,14.60
2022-07-30T04:39:46.236Z,14.62
2022-07-30T04:42:13.203Z,14.61
2022-07-30T04:44:39.666Z,14.69
2022-07-30T04:47:06.136Z,14.73
2022-07-30T04:49:33.897Z,14.76
2022-07-30T04:52:02.376Z,14.80
2022-07-30T04:54:39.086Z,14.84
2022-07-30T04:57:07.142Z,14.86
2022-07-30T04:59:37.117Z,14.90
2022-07-30T05:02:06.707Z,14.93
2022-07-30T05:04:34.654Z,14.97
2022-07-30T05:07:06.903Z,14.95
2022-07-30T05:09:34.201Z,15.01
2022-07-30T05:12:00.589Z,15.06
2022-07-30T05:14:27.686Z,15.12
2022-07-30T05:16:54.835Z,15.18
2022-07-30T05:19:22.532Z,15.23
2022-07-30T05:21:49.120Z,15.17
2022-07-30T05:24:15.601Z,15.30
2022-07-30T05:26:42.094Z,15.33
2022-07-30T05:29:08.580Z,15.36
2022-07-30T05:31:35.434Z,15.42
2022-07-30T05:34:04.738Z,15.44
2022-07-30T05:36:31.282Z,15.48
2022-07-30T05:38:57.790Z,15.48
2022-07-30T05:41:32.373Z,15.52
2022-07-30T05:44:00.039Z,15.58
2022-07-30T05:46:27.033Z,15.64
2022-07-30T05:48:53.908Z,15.64
2022-07-30T05:51:20.880Z,15.70
2022-07-30T05:53:47.384Z,15.76
2022-07-30T05:56:14.096Z,15.77
2022-07-30T05:58:40.521Z,15.68
2022-07-30T06:01:06.923Z,15.87
2022-07-30T06:03:34.750Z,15.94
2022-07-30T06:06:03.908Z,15.99
2022-07-30T06:08:30.314Z,16.06
2022-07-30T06:10:56.666Z,16.11
2022-07-30T06:13:23.008Z,16.22
2022-07-30T06:15:49.444Z,16.28
2022-07-30T06:18:15.810Z,16.38
2022-07-30T06:20:43.205Z,16.55
2022-07-30T06:23:09.586Z,16.62
2022-07-30T06:25:36.041Z,16.71
2022-07-30T06:28:21.237Z,16.74
2022-07-30T06:30:52.912Z,16.81
2022-07-30T06:33:19.298Z,16.83
2022-07-30T06:35:45.722Z,16.87
2022-07-30T06:38:12.084Z,16.85
2022-07-30T06:40:39.395Z,16.96
2022-07-30T06:43:05.908Z,17.00
2022-07-30T06:45:32.290Z,17.26
2022-07-30T06:47:59.066Z,17.39
2022-07-30T06:50:27.466Z,17.51
2022-07-30T06:52:53.893Z,17.63
2022-07-30T06:55:20.274Z,17.74
2022-07-30T06:57:46.698Z,17.81
2022-07-30T07:00:13.872Z,17.84
2022-07-30T07:02:42.485Z,17.92
2022-07-30T07:05:09.431Z,18.05
2022-07-30T07:07:41.716Z,18.15
2022-07-30T07:10:10.920Z,18.13
2022-07-30T07:12:37.643Z,18.14
2022-07-30T07:15:04.577Z,18.07
2022-07-30T07:17:30.977Z,17.95
2022-07-30T07:20:00.336Z,17.91
2022-07-30T07:22:28.368Z,17.92
2022-07-30T07:24:54.734Z,18.01
2022-07-30T07:27:21.147Z,17.99
2022-07-30T07:30:05.758Z,17.91
2022-07-30T07:32:33.766Z,17.68
2022-07-30T07:35:00.338Z,17.37
2022-07-30T07:37:26.967Z,17.71
2022-07-30T07:39:53.438Z,17.87
2022-07-30T07:42:19.776Z,17.93
2022-07-30T07:44:46.097Z,18.06
2022-07-30T07:47:12.454Z,18.21
2022-07-30T07:49:38.835Z,18.27
2022-07-30T07:52:05.649Z,18.49
2022-07-30T07:54:32.473Z,18.63
2022-07-30T07:56:59.480Z,18.72
2022-07-30T07:59:39.769Z,18.73
2022-07-30T08:02:08.076Z,18.41
2022-07-30T08:04:35.299Z,18.21
2022-07-30T08:07:02.217Z,18.04
2022-07-30T08:09:43.888Z,18.02
2022-07-30T08:12:12.564Z,18.04
2022-07-30T08:14:39.128Z,18.01
2022-07-30T08:17:06.291Z,18.13
2022-07-30T08:19:33.064Z,18.09
2022-07-30T08:21:59.487Z,18.31
2022-07-30T08:24:26.127Z,18.59
2022-07-30T08:26:52.503Z,18.79
2022-07-30T08:29:18.886Z,18.94
2022-07-30T08:31:45.387Z,19.00
2022-07-30T08:34:13.157Z,19.03
2022-07-30T08:36:39.843Z,19.08
2022-07-30T08:39:06.242Z,19.23
2022-07-30T08:41:32.734Z,19.25
2022-07-30T08:44:01.502Z,19.18
2022-07-30T08:46:30.796Z,19.33
2022-07-30T08:48:58.080Z,19.56
2022-07-30T08:51:25.232Z,19.75
2022-07-30T08:53:51.785Z,19.94
2022-07-30T08:56:18.393Z,20.05
2022-07-30T08:58:45.773Z,20.18
2022-07-30T09:01:12.202Z,20.31
2022-07-30T09:03:44.168Z,20.60
2022-07-30T09:06:11.153Z,20.68
2022-07-30T09:08:37.704Z,21.00
2022-07-30T09:11:04.134Z,20.95
2022-07-30T09:13:37.564Z,21.13
2022-07-30T09:16:05.716Z,21.56
2022-07-30T09:18:38.414Z,22.08
2022-07-30T09:21:15.528Z,22.52
2022-07-30T09:23:55.506Z,22.76
2022-07-30T09:26:21.934Z,22.76
2022-07-30T09:28:48.697Z,22.99
2022-07-30T09:31:16.635Z,23.18
2022-07-30T09:33:45.080Z,22.90
2022-07-30T09:36:18.237Z,22.73
2022-07-30T09:38:48.820Z,22.48
2022-07-30T09:41:37.277Z,22.25
2022-07-30T09:44:05.573Z,22.72
2022-07-30T09:46:47.295Z,23.46
2022-07-30T09:49:16.237Z,24.06
2022-07-30T09:51:54.765Z,24.19
2022-07-30T09:54:25.295Z,23.86
2022-07-30T09:57:22.876Z,23.40
2022-07-30T09:59:54.067Z,22.87
2022-07-30T10:02:28.316Z,22.84
2022-07-30T10:04:54.831Z,23.87
2022-07-30T10:07:25.321Z,23.94
2022-07-30T10:09:53.312Z,23.44
2022-07-30T10:12:24.155Z,22.93
2022-07-30T10:14:53.535Z,22.59
2022-07-30T10:17:20.161Z,23.59
2022-07-30T10:19:49.076Z,24.85
2022-07-30T10:22:17.148Z,26.02
2022-07-30T10:24:45.816Z,26.90
2022-07-30T10:27:12.900Z,27.35
2022-07-30T10:29:42.734Z,26.91
2022-07-30T10:32:09.761Z,25.85
2022-07-30T10:34:38.110Z,25.07
2022-07-30T10:37:12.418Z,25.73
2022-07-30T10:39:47.184Z,26.66
2022-07-30T10:42:42.578Z,27.51
2022-07-30T10:45:18.459Z,28.18
2022-07-30T10:47:49.071Z,28.55
2022-07-30T10:50:25.522Z,28.74
2022-07-30T10:53:01.610Z,29.10
2022-07-30T10:55:37.497Z,29.33
2022-07-30T10:58:08.427Z,29.49
2022-07-30T11:00:56.887Z,28.66
2022-07-30T11:03:31.407Z,28.65
2022-07-30T11:06:26.792Z,28.33
2022-07-30T11:08:57.394Z,28.62
2022-07-30T11:12:01.249Z,29.08
2022-07-30T11:14:12.699Z,29.36
2022-07-30T11:16:39.298Z,29.70
2022-07-30T11:19:55.787Z,30.13
2022-07-30T11:22:27.170Z,30.48
2022-07-30T11:24:53.995Z,30.54
2022-07-30T11:27:45.710Z,30.81
2022-07-30T11:30:21.140Z,30.80
2022-07-30T11:32:52.047Z,30.71
2022-07-30T11:35:23.060Z,30.66
2022-07-30T11:38:11.991Z,30.33
2022-07-30T11:40:59.773Z,30.54
2022-07-30T11:43:36.834Z,30.84
2022-07-30T11:46:10.979Z,30.19
2022-07-30T11:48:54.351Z,30.47
2022-07-30T11:51:21.453Z,30.86
2022-07-30T11:54:07.748Z,30.73
2022-07-30T11:56:34.567Z,30.68
2022-07-30T11:59:05.885Z,30.57
2022-07-30T12:01:33.476Z,30.46
2022-07-30T12:04:05.037Z,30.29
2022-07-30T12:06:32.081Z,30.05
2022-07-30T12:08:59.263Z,30.07
2022-07-30T12:11:31.952Z,29.81
2022-07-30T12:13:59.968Z,29.81
2022-07-30T12:16:27.873Z,29.55
2022-07-30T12:18:54.894Z,29.77
2022-07-30T12:21:21.622Z,29.95
2022-07-30T12:23:59.760Z,30.00
2022-07-30T12:26:29.325Z,29.83
2022-07-30T12:29:01.895Z,29.73
2022-07-30T12:31:29.141Z,29.42
2022-07-30T12:33:57.548Z,29.06
2022-07-30T12:36:35.746Z,28.86
2022-07-30T12:39:06.197Z,29.01
2022-07-30T12:41:50.085Z,29.38
2022-07-30T12:44:39.582Z,29.85
2022-07-30T12:47:19.193Z,29.96
2022-07-30T12:49:49.665Z,30.14
2022-07-30T12:52:29.328Z,30.31
2022-07-30T12:54:58.740Z,30.02
2022-07-30T12:57:25.305Z,29.81
2022-07-30T13:00:06.949Z,29.42
2022-07-30T13:02:35.234Z,29.03
2022-07-30T13:05:10.382Z,29.12
2022-07-30T13:07:56.373Z,28.45
2022-07-30T13:10:27.221Z,28.22
2022-07-30T13:12:56.606Z,28.59
2022-07-30T13:15:23.067Z,28.48
2022-07-30T13:17:49.704Z,28.64
2022-07-30T13:20:16.878Z,28.53
2022-07-30T13:22:43.527Z,28.47
2022-07-30T13:25:10.713Z,28.74
2022-07-30T13:27:37.228Z,28.85
2022-07-30T13:30:04.933Z,28.95
2022-07-30T13:32:31.479Z,28.84
2022-07-30T13:35:01.433Z,28.84
2022-07-30T13:37:38.648Z,28.54
2022-07-30T13:40:06.086Z,28.24
2022-07-30T13:42:32.614Z,28.33
2022-07-30T13:44:58.949Z,28.45
2022-07-30T13:47:25.321Z,28.29
2022-07-30T13:49:51.849Z,27.99
2022-07-30T13:52:18.758Z,27.80
2022-07-30T13:54:45.306Z,27.69
2022-07-30T13:57:11.945Z,27.56
2022-07-30T13:59:38.498Z,27.53
2022-07-30T14:02:04.996Z,27.30
2022-07-30T14:04:31.707Z,27.41
2022-07-30T14:06:59.368Z,27.71
2022-07-30T14:09:25.947Z,28.19
2022-07-30T14:11:53.061Z,28.51
2022-07-30T14:14:19.489Z,28.61
2022-07-30T14:16:50.658Z,28.22
2022-07-30T14:19:24.071Z,27.98
2022-07-30T14:21:52.655Z,28.04
2022-07-30T14:24:19.945Z,27.78
2022-07-30T14:26:46.340Z,27.37
2022-07-30T14:29:12.719Z,27.09
2022-07-30T14:31:40.320Z,27.26
2022-07-30T14:34:06.739Z,27.39
2022-07-30T14:36:33.317Z,27.49
2022-07-30T14:39:00.497Z,27.41
2022-07-30T14:41:26.999Z,27.45
2022-07-30T14:43:53.743Z,27.49
2022-07-30T14:46:20.322Z,27.50
2022-07-30T14:48:47.043Z,27.46
2022-07-30T14:51:20.543Z,27.43
2022-07-30T14:53:50.232Z,27.41
2022-07-30T14:56:17.885Z,27.05
2022-07-30T14:58:44.333Z,27.05
2022-07-30T15:01:16.407Z,27.14
2022-07-30T15:03:44.597Z,27.23
2022-07-30T15:06:12.756Z,27.16
2022-07-30T15:08:39.200Z,27.11
2022-07-30T15:11:06.148Z,27.05
2022-07-30T15:13:35.010Z,26.54
2022-07-30T15:16:03.007Z,26.40
2022-07-30T15:18:29.539Z,26.53
2022-07-30T15:20:56.318Z,26.64
2022-07-30T15:23:22.710Z,26.50
2022-07-30T15:25:49.398Z,26.55
2022-07-30T15:28:15.854Z,26.58
2022-07-30T15:30:43.294Z,26.67
2022-07-30T15:33:09.772Z,26.76
2022-07-30T15:35:37.313Z,26.59
2022-07-30T15:38:04.188Z,26.56
2022-07-30T15:40:30.713Z,26.61
2022-07-30T15:42:57.125Z,26.69
2022-07-30T15:45:24.604Z,26.83
2022-07-30T15:47:51.691Z,26.36
2022-07-30T15:50:18.130Z,26.33
2022-07-30T15:52:45.009Z,26.38
2022-07-30T15:55:11.704Z,26.39
2022-07-30T15:57:38.138Z,26.34
2022-07-30T16:00:08.348Z,26.39
2022-07-30T16:02:35.035Z,26.41
2022-07-30T16:05:02.042Z,26.39
2022-07-30T16:07:28.424Z,26.55
2022-07-30T16:09:54.806Z,26.65
2022-07-30T16:12:21.201Z,26.57
2022-07-30T16:14:47.863Z,26.46
2022-07-30T16:17:14.886Z,26.49
2022-07-30T16:19:44.747Z,26.56
2022-07-30T16:22:12.452Z,26.47
2022-07-30T16:24:45.061Z,26.50
2022-07-30T16:27:11.552Z,26.46
2022-07-30T16:29:37.933Z,26.41
2022-07-30T16:32:05.178Z,26.46
2022-07-30T16:34:33.065Z,26.37
2022-07-30T16:36:59.632Z,26.18
2022-07-30T16:39:30.553Z,26.10
2022-07-30T16:41:56.965Z,25.96
2022-07-30T16:44:23.394Z,25.95
2022-07-30T16:46:49.747Z,25.94
2022-07-30T16:49:16.263Z,25.96
2022-07-30T16:51:43.854Z,25.96
2022-07-30T16:54:10.371Z,25.90
2022-07-30T16:56:36.738Z,25.78
2022-07-30T16:59:03.101Z,25.73
2022-07-30T17:01:29.655Z,25.76
2022-07-30T17:03:56.077Z,25.71
2022-07-30T17:06:22.509Z,25.54
2022-07-30T17:08:48.868Z,25.57
2022-07-30T17:11:47.152Z,25.64
2022-07-30T17:14:01.918Z,25.74
2022-07-30T17:16:28.355Z,25.80
2022-07-30T17:18:54.730Z,25.90
2022-07-30T17:21:21.176Z,25.76
2022-07-30T17:23:47.568Z,25.68
2022-07-30T17:26:13.952Z,25.67
2022-07-30T17:28:40.333Z,25.71
2022-07-30T17:31:06.869Z,25.78
2022-07-30T17:33:33.269Z,25.81
2022-07-30T17:35:59.702Z,25.83
2022-07-30T17:38:28.572Z,25.83
2022-07-30T17:40:54.994Z,25.77
2022-07-30T17:43:21.609Z,25.55
2022-07-30T17:45:47.943Z,25.40
2022-07-30T17:48:14.336Z,25.38
2022-07-30T17:50:40.713Z,25.30
2022-07-30T17:53:07.084Z,25.26
2022-07-30T17:55:35.335Z,25.09
2022-07-30T17:58:03.169Z,24.99
2022-07-30T18:00:29.693Z,25.04
2022-07-30T18:02:56.121Z,25.01
2022-07-30T18:05:22.626Z,25.05
2022-07-30T18:07:48.996Z,24.76
2022-07-30T18:10:15.366Z,24.61
2022-07-30T18:12:48.834Z,24.66
2022-07-30T18:15:17.475Z,24.62
2022-07-30T18:17:43.886Z,24.61
2022-07-30T18:20:10.850Z,24.43
2022-07-30T18:22:37.633Z,24.46
2022-07-30T18:25:07.935Z,24.44
2022-07-30T18:27:35.324Z,24.41
2022-07-30T18:30:02.045Z,24.37
2022-07-30T18:32:28.475Z,24.27
2022-07-30T18:34:54.975Z,24.17
2022-07-30T18:37:21.381Z,24.15
2022-07-30T18:39:47.773Z,24.07
2022-07-30T18:42:14.356Z,23.88
2022-07-30T18:44:40.881Z,23.84
2022-07-30T18:47:07.314Z,23.74
2022-07-30T18:49:36.933Z,23.70
2022-07-30T18:52:04.562Z,23.60
2022-07-30T18:54:31.335Z,23.53
2022-07-30T18:56:57.732Z,23.46
2022-07-30T18:59:24.136Z,23.31
2022-07-30T19:01:50.696Z,23.14
2022-07-30T19:04:17.064Z,23.35
2022-07-30T19:06:43.886Z,23.27
2022-07-30T19:09:17.188Z,23.23
2022-07-30T19:11:44.579Z,23.20
2022-07-30T19:14:12.990Z,23.16
2022-07-30T19:16:39.664Z,23.17
2022-07-30T19:19:06.129Z,23.10
2022-07-30T19:21:32.560Z,23.14
2022-07-30T19:23:59.059Z,23.11
2022-07-30T19:26:25.442Z,22.98
2022-07-30T19:28:51.822Z,22.86
2022-07-30T19:31:18.989Z,22.84
2022-07-30T19:33:45.397Z,22.83
2022-07-30T19:36:12.796Z,22.78
2022-07-30T19:38:41.951Z,22.60
2022-07-30T19:41:08.457Z,22.61
2022-07-30T19:43:34.932Z,22.57
2022-07-30T19:46:04.364Z,22.53
2022-07-30T19:48:32.512Z,22.45
2022-07-30T19:51:00.517Z,22.29
2022-07-30T19:53:27.985Z,22.39
2022-07-30T19:56:01.241Z,22.35
2022-07-30T19:58:27.775Z,22.32
2022-07-30T20:00:54.279Z,22.30
2022-07-30T20:03:25.671Z,22.26
2022-07-30T20:05:54.828Z,22.25
2022-07-30T20:08:24.795Z,22.26
2022-07-30T20:10:51.473Z,22.24
2022-07-30T20:13:17.815Z,22.24
2022-07-30T20:15:46.377Z,22.19
2022-07-30T20:18:12.992Z,22.17
2022-07-30T20:20:41.395Z,22.16
2022-07-30T20:23:08.242Z,22.17
2022-07-30T20:25:37.346Z,22.04
2022-07-30T20:28:21.382Z,22.14
2022-07-30T20:30:48.705Z,22.11
2022-07-30T20:33:16.540Z,22.10
2022-07-30T20:35:53.245Z,22.07
2022-07-30T20:38:19.677Z,22.05
2022-07-30T20:40:48.345Z,22.02
2022-07-30T20:43:14.790Z,21.99
2022-07-30T20:45:42.974Z,21.96
2022-07-30T20:48:17.452Z,21.93
2022-07-30T20:50:51.882Z,21.90
2022-07-30T20:53:19.722Z,21.89
2022-07-30T20:55:47.266Z,21.87
2022-07-30T20:58:16.530Z,21.85
2022-07-30T21:00:49.752Z,21.84
2022-07-30T21:03:21.311Z,21.82
2022-07-30T21:05:48.298Z,21.80
2022-07-30T21:08:17.796Z,21.79
2022-07-30T21:10:44.441Z,21.78
2022-07-30T21:13:11.209Z,21.76
2022-07-30T21:15:45.654Z,21.66
2022-07-30T21:18:24.952Z,21.70
2022-07-30T21:20:52.905Z,21.70
2022-07-30T21:23:22.172Z,21.69
2022-07-30T21:28:36.024Z,21.64
2022-07-30T21:31:07.082Z,21.63
2022-07-30T21:33:37.596Z,21.61
2022-07-30T21:36:05.512Z,21.50
2022-07-30T21:38:38.328Z,21.46
2022-07-30T21:41:11.055Z,21.51
2022-07-30T21:43:40.896Z,21.34
2022-07-30T21:46:07.980Z,21.42
2022-07-30T21:48:36.913Z,21.36
2022-07-30T21:51:04.049Z,21.28
2022-07-30T21:53:45.020Z,21.20
2022-07-30T21:56:13.205Z,21.13
2022-07-30T21:58:39.904Z,21.08
2022-07-30T22:01:17.317Z,21.00
2022-07-30T22:04:02.631Z,20.89
2022-07-30T22:06:41.867Z,20.76
2022-07-30T22:09:19.698Z,20.68
2022-07-30T22:12:01.243Z,20.60
2022-07-30T22:14:28.865Z,20.56
2022-07-30T22:16:55.422Z,20.53
2022-07-30T22:19:21.980Z,20.52
2022-07-30T22:21:49.484Z,20.52
2022-07-30T22:24:29.704Z,20.54
2022-07-30T22:27:00.978Z,20.55
2022-07-30T22:29:27.840Z,20.55
2022-07-30T22:32:01.519Z,20.58
2022-07-30T22:34:28.117Z,20.59
2022-07-30T22:36:54.462Z,20.58
2022-07-30T22:39:24.166Z,20.55
2022-07-30T22:41:58.995Z,20.54
2022-07-30T22:44:27.044Z,20.53
2022-07-30T22:46:56.184Z,20.53
2022-07-30T22:49:24.473Z,20.51
2022-07-30T22:52:19.805Z,20.50
2022-07-30T22:54:50.899Z,20.49
2022-07-30T22:57:17.446Z,20.48
2022-07-30T23:00:00.256Z,20.47
2022-07-30T23:02:27.832Z,20.46
2022-07-30T23:04:54.595Z,20.47
2022-07-30T23:07:22.695Z,20.49
2022-07-30T23:09:52.061Z,20.49
2022-07-30T23:12:20.117Z,20.45
2022-07-30T23:12:27.228Z,21.67
2022-07-30T23:14:47.442Z,20.47
2022-07-30T23:17:13.970Z,20.41
2022-07-30T23:19:40.323Z,20.41
2022-07-30T23:22:07.050Z,20.39
2022-07-30T23:24:33.616Z,20.34
2022-07-30T23:27:00.063Z,20.31
2022-07-30T23:29:26.684Z,20.30
2022-07-30T23:31:53.019Z,20.25
2022-07-30T23:34:19.450Z,20.22
2022-07-30T23:36:45.796Z,20.17
2022-07-30T23:39:12.580Z,20.08
2022-07-30T23:41:38.938Z,20.07
2022-07-30T23:44:05.318Z,20.05
2022-07-30T23:46:31.764Z,20.05
2022-07-30T23:48:58.610Z,20.05
2022-07-30T23:51:25.028Z,20.02
2022-07-30T23:53:59.779Z,19.99
2022-07-30T23:56:26.402Z,19.94
2022-07-30T23:58:52.938Z,19.93
